createdAt,value
2023-05-22T00:01:47.985Z,101153.86
2023-05-22T00:04:22.588Z,101156.77
2023-05-22T00:06:51.157Z,101156.80
2023-05-22T00:09:19.244Z,101157.07
2023-05-22T00:11:47.432Z,101149.97
2023-05-22T00:14:15.502Z,101161.29
2023-05-22T00:16:43.994Z,101157.88
2023-05-22T00:19:14.485Z,101163.94
2023-05-22T00:21:42.527Z,101165.77
2023-05-22T00:24:10.898Z,101166.59
2023-05-22T00:26:38.814Z,101163.67
2023-05-22T00:29:10.718Z,101167.11
2023-05-22T00:31:38.746Z,101173.13
2023-05-22T00:34:06.901Z,101174.46
2023-05-22T00:36:34.974Z,101167.86
2023-05-22T00:39:02.966Z,101177.08
2023-05-22T00:41:31.607Z,101173.94
2023-05-22T00:43:59.565Z,101177.34
2023-05-22T00:46:27.721Z,101178.65
2023-05-22T00:48:55.850Z,101177.60
2023-05-22T00:51:23.991Z,101180.25
2023-05-22T00:53:53.277Z,101176.30
2023-05-22T00:56:22.696Z,101179.99
2023-05-22T00:58:51.153Z,101188.91
2023-05-22T01:01:19.151Z,101193.10
2023-05-22T01:03:48.128Z,101191.53
2023-05-22T01:06:19.264Z,101188.36
2023-05-22T01:08:47.303Z,101202.03
2023-05-22T01:11:20.930Z,101200.46
2023-05-22T01:14:03.842Z,101200.98
2023-05-22T01:16:40.842Z,101201.77
2023-05-22T01:19:27.567Z,101210.95
2023-05-22T01:22:37.182Z,101212.00
2023-05-22T01:25:18.358Z,101212.27
2023-05-22T01:28:10.524Z,101208.05
2023-05-22T01:30:38.623Z,101214.33
2023-05-22T01:33:09.617Z,101214.06
2023-05-22T01:35:40.617Z,101212.98
2023-05-22T01:38:10.370Z,101215.11
2023-05-22T01:40:39.291Z,101219.30
2023-05-22T01:43:07.939Z,101217.20
2023-05-22T01:45:36.338Z,101216.68
2023-05-22T01:48:04.364Z,101222.44
2023-05-22T01:50:32.612Z,101218.25
2023-05-22T01:53:21.132Z,101217.73
2023-05-22T01:56:22.399Z,101222.24
2023-05-22T01:59:13.239Z,101223.28
2023-05-22T02:01:42.836Z,101216.19
2023-05-22T02:04:12.089Z,101220.41
2023-05-22T02:06:40.958Z,101215.14
2023-05-22T02:09:10.161Z,101219.10
2023-05-22T02:11:39.728Z,101214.36
2023-05-22T02:14:07.941Z,101212.27
2023-05-22T02:16:36.388Z,101222.27
2023-05-22T02:19:07.668Z,101220.15
2023-05-22T02:21:37.222Z,101208.87
2023-05-22T02:24:05.354Z,101218.58
2023-05-22T02:26:33.300Z,101214.91
2023-05-22T02:29:01.200Z,101213.61
2023-05-22T02:31:29.104Z,101209.65
2023-05-22T02:33:57.833Z,101209.13
2023-05-22T02:36:27.484Z,101203.60
2023-05-22T02:38:56.753Z,101202.29
2023-05-22T02:41:24.782Z,101197.06
2023-05-22T02:43:52.701Z,101195.75
2023-05-22T02:46:20.648Z,101200.72
2023-05-22T02:48:48.695Z,101204.41
2023-05-22T02:51:16.796Z,101202.84
2023-05-22T02:53:44.791Z,101208.63
2023-05-22T02:56:13.390Z,101218.05
2023-05-22T02:58:41.478Z,101215.70
2023-05-22T03:01:10.334Z,101217.79
2023-05-22T03:03:38.298Z,101225.41
2023-05-22T03:06:06.597Z,101223.58
2023-05-22T03:08:34.592Z,101216.22
2023-05-22T03:11:03.149Z,101224.63
2023-05-22T03:13:31.117Z,101228.55
2023-05-22T03:15:59.140Z,101215.17
2023-05-22T03:18:27.884Z,101219.88
2023-05-22T03:20:55.915Z,101226.45
2023-05-22T03:23:23.903Z,101226.69
2023-05-22T03:25:52.532Z,101228.26
2023-05-22T03:28:20.427Z,101224.33
2023-05-22T03:30:48.883Z,101235.32
2023-05-22T03:33:16.985Z,101237.64
2023-05-22T03:35:45.895Z,101237.94
2023-05-22T03:38:13.868Z,101238.69
2023-05-22T03:40:42.040Z,101240.52
2023-05-22T03:43:10.157Z,101240.48
2023-05-22T03:45:38.087Z,101239.44
2023-05-22T03:48:06.136Z,101241.01
2023-05-22T03:50:34.049Z,101234.66
2023-05-22T03:53:02.554Z,101240.19
2023-05-22T03:55:32.167Z,101229.70
2023-05-22T03:58:00.063Z,101238.06
2023-05-22T04:00:28.000Z,101238.33
2023-05-22T04:02:56.162Z,101244.34
2023-05-22T04:05:24.263Z,101244.84
2023-05-22T04:07:52.292Z,101240.39
2023-05-22T04:10:23.814Z,101246.66
2023-05-22T04:12:52.082Z,101255.85
2023-05-22T04:15:19.996Z,101252.98
2023-05-22T04:17:48.652Z,101256.90
2023-05-22T04:20:16.986Z,101254.02
2023-05-22T04:22:47.081Z,101260.30
2023-05-22T04:25:15.199Z,101266.84
2023-05-22T04:27:43.743Z,101269.46
2023-05-22T04:30:11.845Z,101271.02
2023-05-22T04:32:39.837Z,101270.24
2023-05-22T04:35:08.121Z,101281.79
2023-05-22T04:37:37.152Z,101272.34
2023-05-22T04:40:08.741Z,101286.27
2023-05-22T04:42:36.729Z,101283.88
2023-05-22T04:45:05.705Z,101288.88
2023-05-22T04:47:33.712Z,101293.82
2023-05-22T04:50:02.360Z,101289.38
2023-05-22T04:52:30.279Z,101282.83
2023-05-22T04:55:00.689Z,101287.28
2023-05-22T04:57:29.139Z,101295.42
2023-05-22T04:59:58.350Z,101294.12
2023-05-22T05:02:26.410Z,101292.02
2023-05-22T05:04:54.484Z,101295.68
2023-05-22T05:07:22.873Z,101299.12
2023-05-22T05:09:50.944Z,101294.15
2023-05-22T05:12:18.891Z,101298.89
2023-05-22T05:14:46.841Z,101305.20
2023-05-22T05:17:15.153Z,101303.40
2023-05-22T05:19:43.087Z,101299.45
2023-05-22T05:22:11.039Z,101289.77
2023-05-22T05:24:39.028Z,101302.35
2023-05-22T05:27:07.355Z,101297.94
2023-05-22T05:29:35.237Z,101297.19
2023-05-22T05:32:03.272Z,101293.52
2023-05-22T05:34:31.202Z,101292.77
2023-05-22T05:36:59.294Z,101291.98
2023-05-22T05:39:27.281Z,101292.80
2023-05-22T05:41:55.373Z,101293.10
2023-05-22T05:44:23.268Z,101289.47
2023-05-22T05:46:51.332Z,101289.21
2023-05-22T05:49:20.870Z,101290.02
2023-05-22T05:51:48.800Z,101294.51
2023-05-22T05:54:17.347Z,101296.34
2023-05-22T05:56:45.329Z,101296.11
2023-05-22T05:59:13.303Z,101294.77
2023-05-22T06:01:45.808Z,101298.98
2023-05-22T06:04:14.692Z,101302.42
2023-05-22T06:06:43.824Z,101308.99
2023-05-22T06:09:12.230Z,101307.42
2023-05-22T06:11:40.194Z,101297.97
2023-05-22T06:14:09.748Z,101317.40
2023-05-22T06:16:37.764Z,101318.21
2023-05-22T06:19:06.041Z,101324.23
2023-05-22T06:21:33.993Z,101317.13
2023-05-22T06:24:02.022Z,101318.21
2023-05-22T06:26:30.173Z,101327.40
2023-05-22T06:28:58.144Z,101326.09
2023-05-22T06:31:26.504Z,101324.00
2023-05-22T06:33:54.519Z,101328.45
2023-05-22T06:36:22.538Z,101330.80
2023-05-22T06:38:50.974Z,101326.81
2023-05-22T06:41:18.947Z,101330.70
2023-05-22T06:43:46.971Z,101328.25
2023-05-22T06:46:14.909Z,101324.00
2023-05-22T06:48:43.322Z,101327.11
2023-05-22T06:51:12.993Z,101319.59
2023-05-22T06:53:40.950Z,101323.55
2023-05-22T06:56:09.168Z,101326.20
2023-05-22T06:58:37.375Z,101317.23
2023-05-22T07:01:05.642Z,101314.09
2023-05-22T07:03:33.651Z,101316.74
2023-05-22T07:06:01.703Z,101321.74
2023-05-22T07:08:30.745Z,101317.82
2023-05-22T07:10:58.906Z,101310.46
2023-05-22T07:13:27.192Z,101314.65
2023-05-22T07:15:55.106Z,101327.04
2023-05-22T07:18:23.057Z,101324.13
2023-05-22T07:20:50.943Z,101319.39
2023-05-22T07:23:18.844Z,101315.92
2023-05-22T07:25:46.864Z,101314.09
2023-05-22T07:28:14.816Z,101312.00
2023-05-22T07:30:42.844Z,101314.84
2023-05-22T07:33:10.840Z,101316.38
2023-05-22T07:35:38.993Z,101317.43
2023-05-22T07:38:07.113Z,101318.15
2023-05-22T07:40:35.055Z,101313.41
2023-05-22T07:43:03.000Z,101317.07
2023-05-22T07:45:32.078Z,101320.66
2023-05-22T07:48:00.425Z,101317.49
2023-05-22T07:50:28.436Z,101317.98
2023-05-22T07:52:56.416Z,101318.25
2023-05-22T07:55:24.367Z,101320.05
2023-05-22T07:57:52.670Z,101313.70
2023-05-22T08:00:21.246Z,101317.88
2023-05-22T08:02:49.258Z,101312.33
2023-05-22T08:05:17.511Z,101304.91
2023-05-22T08:07:45.659Z,101305.88
2023-05-22T08:10:18.174Z,101306.41
2023-05-22T08:12:46.316Z,101305.55
2023-05-22T08:15:14.528Z,101300.20
2023-05-22T08:17:42.522Z,101298.01
2023-05-22T08:20:11.632Z,101299.51
2023-05-22T08:22:40.852Z,101299.94
2023-05-22T08:25:09.227Z,101298.79
2023-05-22T08:27:37.178Z,101291.79
2023-05-22T08:30:06.020Z,101301.70
2023-05-22T08:32:34.053Z,101297.97
2023-05-22T08:35:02.764Z,101297.35
2023-05-22T08:37:30.801Z,101304.64
2023-05-22T08:39:58.699Z,101300.36
2023-05-22T08:42:26.652Z,101303.17
2023-05-22T08:44:56.778Z,101302.09
2023-05-22T08:47:28.127Z,101287.15
2023-05-22T08:49:59.409Z,101293.91
2023-05-22T08:52:34.692Z,101295.39
2023-05-22T08:55:06.902Z,101289.73
2023-05-22T08:57:36.142Z,101286.16
2023-05-22T09:00:05.084Z,101291.66
2023-05-22T09:02:33.588Z,101290.55
2023-05-22T09:05:03.369Z,101283.62
2023-05-22T09:07:31.324Z,101282.15
2023-05-22T09:09:59.298Z,101277.66
2023-05-22T09:12:28.462Z,101274.46
2023-05-22T09:14:57.318Z,101272.79
2023-05-22T09:17:25.403Z,101276.62
2023-05-22T09:19:53.456Z,101275.73
2023-05-22T09:22:23.595Z,101272.73
2023-05-22T09:24:52.343Z,101277.66
2023-05-22T09:27:24.610Z,101273.58
2023-05-22T09:29:54.236Z,101278.48
2023-05-22T09:32:22.376Z,101274.16
2023-05-22T09:34:51.146Z,101279.07
2023-05-22T09:37:19.573Z,101272.37
2023-05-22T09:39:54.191Z,101271.81
2023-05-22T09:42:22.065Z,101274.40
2023-05-22T09:44:51.152Z,101277.08
2023-05-22T09:47:19.172Z,101270.70
2023-05-22T09:49:47.772Z,101268.02
2023-05-22T09:52:18.064Z,101272.92
2023-05-22T09:54:57.134Z,101273.61
2023-05-22T09:57:27.979Z,101263.96
2023-05-22T09:59:59.800Z,101271.26
2023-05-22T10:02:29.464Z,101267.01
2023-05-22T10:04:58.008Z,101270.38
2023-05-22T10:07:33.708Z,101271.81
2023-05-22T10:10:06.552Z,101269.33
2023-05-22T10:12:39.148Z,101265.11
2023-05-22T10:15:08.795Z,101271.16
2023-05-22T10:17:38.155Z,101267.66
2023-05-22T10:20:09.272Z,101267.79
2023-05-22T10:22:39.095Z,101257.00
2023-05-22T10:25:09.847Z,101251.84
2023-05-22T10:27:39.624Z,101251.51
2023-05-22T10:30:35.497Z,101255.20
2023-05-22T10:33:14.236Z,101250.36
2023-05-22T10:35:58.430Z,101240.48
2023-05-22T10:38:54.379Z,101239.80
2023-05-22T10:41:24.224Z,101237.77
2023-05-22T10:43:52.654Z,101239.99
2023-05-22T10:46:20.975Z,101234.80
2023-05-22T10:48:50.200Z,101236.98
2023-05-22T10:51:27.433Z,101225.41
2023-05-22T10:54:06.621Z,101226.82
2023-05-22T10:56:36.647Z,101218.74
2023-05-22T10:59:07.201Z,101219.59
2023-05-22T11:01:39.333Z,101212.46
2023-05-22T11:04:10.213Z,101210.17
2023-05-22T11:06:47.791Z,101215.08
2023-05-22T11:09:49.978Z,101209.65
2023-05-22T11:12:22.654Z,101201.28
2023-05-22T11:14:52.804Z,101202.62
2023-05-22T11:17:31.622Z,101197.23
2023-05-22T11:20:07.427Z,101199.38
2023-05-22T11:22:36.625Z,101196.11
2023-05-22T11:25:09.966Z,101195.95
2023-05-22T11:27:40.416Z,101187.58
2023-05-22T11:30:09.686Z,101184.66
2023-05-22T11:32:38.912Z,101182.34
2023-05-22T11:35:09.670Z,101182.97
2023-05-22T11:37:41.326Z,101176.79
2023-05-22T11:40:10.480Z,101180.88
2023-05-22T11:42:39.082Z,101175.09
2023-05-22T11:45:08.079Z,101176.13
2023-05-22T11:47:36.145Z,101170.31
2023-05-22T11:50:04.581Z,101168.41
2023-05-22T11:52:36.801Z,101166.09
2023-05-22T11:55:09.175Z,101158.73
2023-05-22T11:57:38.193Z,101159.13
2023-05-22T12:00:09.404Z,101165.34
2023-05-22T12:02:38.410Z,101164.78
2023-05-22T12:05:06.865Z,101161.29
2023-05-22T12:07:34.935Z,101165.41
2023-05-22T12:10:05.046Z,101159.55
2023-05-22T12:12:33.094Z,101160.73
2023-05-22T12:15:01.082Z,101156.25
2023-05-22T12:17:30.108Z,101153.54
2023-05-22T12:19:59.142Z,101152.75
2023-05-22T12:22:31.043Z,101154.74
2023-05-22T12:24:58.997Z,101145.79
2023-05-22T12:27:33.163Z,101147.32
2023-05-22T12:30:10.618Z,101149.68
2023-05-22T12:32:38.625Z,101147.16
2023-05-22T12:35:06.983Z,101139.93
2023-05-22T12:37:35.482Z,101144.61
2023-05-22T12:40:06.110Z,101133.06
2023-05-22T12:42:34.103Z,101142.02
2023-05-22T12:45:02.125Z,101128.78
2023-05-22T12:47:30.144Z,101137.74
2023-05-22T12:49:58.145Z,101134.60
2023-05-22T12:52:26.220Z,101129.11
2023-05-22T12:54:54.119Z,101122.63
2023-05-22T12:57:22.011Z,101125.15
2023-05-22T12:59:49.977Z,101123.98
2023-05-22T13:02:17.901Z,101124.37
2023-05-22T13:04:45.820Z,101125.51
2023-05-22T13:07:13.746Z,101114.55
2023-05-22T13:09:41.757Z,101118.05
2023-05-22T13:12:11.613Z,101113.77
2023-05-22T13:14:41.597Z,101115.67
2023-05-22T13:17:09.746Z,101110.21
2023-05-22T13:19:37.712Z,101112.95
2023-05-22T13:22:06.293Z,101105.14
2023-05-22T13:24:34.280Z,101108.48
2023-05-22T13:27:03.142Z,101105.76
2023-05-22T13:29:31.050Z,101103.60
2023-05-22T13:31:58.999Z,101096.73
2023-05-22T13:34:27.008Z,101098.89
2023-05-22T13:36:55.865Z,101102.95
2023-05-22T13:39:24.172Z,101087.91
2023-05-22T13:41:54.100Z,101091.41
2023-05-22T13:44:22.625Z,101094.91
2023-05-22T13:46:51.070Z,101094.31
2023-05-22T13:49:19.119Z,101083.16
2023-05-22T13:51:47.316Z,101092.32
2023-05-22T13:54:15.328Z,101085.06
2023-05-22T13:56:43.507Z,101070.61
2023-05-22T13:59:12.023Z,101078.23
2023-05-22T14:01:40.048Z,101077.64
2023-05-22T14:04:08.168Z,101078.39
2023-05-22T14:06:36.217Z,101078.75
2023-05-22T14:09:04.927Z,101075.05
2023-05-22T14:11:32.945Z,101070.18
2023-05-22T14:14:01.061Z,101073.16
2023-05-22T14:16:29.195Z,101064.85
2023-05-22T14:18:57.474Z,101061.95
2023-05-22T14:21:25.478Z,101072.87
2023-05-22T14:23:53.799Z,101068.77
2023-05-22T14:26:23.457Z,101064.85
2023-05-22T14:28:52.054Z,101063.84
2023-05-22T14:31:20.181Z,101064.36
2023-05-22T14:33:48.178Z,101071.75
2023-05-22T14:36:16.170Z,101059.42
2023-05-22T14:38:44.152Z,101052.95
2023-05-22T14:41:12.155Z,101062.95
2023-05-22T14:43:40.171Z,101057.46
2023-05-22T14:46:08.301Z,101055.83
2023-05-22T14:48:36.358Z,101059.91
2023-05-22T14:51:04.285Z,101066.48
2023-05-22T14:53:32.249Z,101058.41
2023-05-22T14:56:00.343Z,101057.37
2023-05-22T14:58:28.268Z,101070.84
2023-05-22T15:00:56.242Z,101055.56
2023-05-22T15:03:24.958Z,101048.11
2023-05-22T15:05:52.900Z,101059.00
2023-05-22T15:08:21.414Z,101045.46
2023-05-22T15:10:49.553Z,101047.20
2023-05-22T15:13:17.528Z,101046.57
2023-05-22T15:15:46.438Z,101045.73
2023-05-22T15:18:14.712Z,101048.24
2023-05-22T15:20:42.763Z,101052.46
2023-05-22T15:23:10.632Z,101048.17
2023-05-22T15:25:39.121Z,101046.31
2023-05-22T15:28:08.846Z,101040.13
2023-05-22T15:30:37.815Z,101041.34
2023-05-22T15:33:06.290Z,101042.09
2023-05-22T15:35:34.271Z,101043.83
2023-05-22T15:38:02.437Z,101042.78
2023-05-22T15:40:30.636Z,101039.61
2023-05-22T15:42:58.607Z,101037.19
2023-05-22T15:45:26.546Z,101033.56
2023-05-22T15:47:54.703Z,101042.45
2023-05-22T15:50:22.677Z,101041.08
2023-05-22T15:52:50.625Z,101048.24
2023-05-22T15:55:18.563Z,101045.00
2023-05-22T15:57:46.567Z,101042.75
2023-05-22T16:00:16.510Z,101052.98
2023-05-22T16:02:45.856Z,101053.57
2023-05-22T16:05:13.856Z,101065.73
2023-05-22T16:07:41.782Z,101062.83
2023-05-22T16:10:10.350Z,101062.20
2023-05-22T16:12:42.880Z,101067.50
2023-05-22T16:15:11.254Z,101052.82
2023-05-22T16:17:39.668Z,101059.00
2023-05-22T16:20:09.847Z,101056.19
2023-05-22T16:22:48.288Z,101058.21
2023-05-22T16:25:18.385Z,101055.50
2023-05-22T16:27:46.919Z,101057.66
2023-05-22T16:30:18.698Z,101061.98
2023-05-22T16:32:48.110Z,101061.98
2023-05-22T16:35:17.296Z,101068.02
2023-05-22T16:37:45.382Z,101063.31
2023-05-22T16:40:13.539Z,101052.79
2023-05-22T16:42:41.557Z,101057.53
2023-05-22T16:45:09.916Z,101058.15
2023-05-22T16:47:37.902Z,101057.95
2023-05-22T16:50:06.361Z,101056.58
2023-05-22T16:52:34.461Z,101069.66
2023-05-22T16:55:02.610Z,101059.88
2023-05-22T16:57:30.591Z,101067.57
2023-05-22T16:59:58.560Z,101068.94
2023-05-22T17:02:26.946Z,101070.90
2023-05-22T17:04:55.844Z,101079.38
2023-05-22T17:07:23.921Z,101081.53
2023-05-22T17:09:51.884Z,101090.75
2023-05-22T17:12:19.863Z,101097.98
2023-05-22T17:14:47.951Z,101095.66
2023-05-22T17:17:15.985Z,101097.62
2023-05-22T17:19:43.930Z,101098.99
2023-05-22T17:22:11.946Z,101096.64
2023-05-22T17:24:39.914Z,101100.01
2023-05-22T17:27:08.066Z,101096.54
2023-05-22T17:29:36.033Z,101093.23
2023-05-22T17:32:07.530Z,101095.46
2023-05-22T17:34:35.728Z,101105.50
2023-05-22T17:37:03.739Z,101100.89
2023-05-22T17:39:31.956Z,101105.47
2023-05-22T17:42:00.585Z,101098.66
2023-05-22T17:44:28.720Z,101100.66
2023-05-22T17:46:56.605Z,101104.84
2023-05-22T17:49:24.622Z,101107.59
2023-05-22T17:51:52.659Z,101106.09
2023-05-22T17:54:20.587Z,101115.90
2023-05-22T17:56:48.563Z,101115.11
2023-05-22T17:59:16.701Z,101122.93
2023-05-22T18:01:45.377Z,101116.29
2023-05-22T18:04:13.813Z,101119.07
2023-05-22T18:06:41.870Z,101122.18
2023-05-22T18:09:09.806Z,101113.18
2023-05-22T18:11:37.824Z,101119.66
2023-05-22T18:14:06.004Z,101130.58
2023-05-22T18:16:34.041Z,101137.77
2023-05-22T18:19:02.465Z,101136.17
2023-05-22T18:21:30.441Z,101138.30
2023-05-22T18:23:58.444Z,101137.12
2023-05-22T18:26:26.389Z,101136.89
2023-05-22T18:28:54.373Z,101136.07
2023-05-22T18:31:23.477Z,101139.57
2023-05-22T18:33:51.600Z,101143.23
2023-05-22T18:36:19.550Z,101148.04
2023-05-22T18:38:47.658Z,101152.06
2023-05-22T18:41:15.690Z,101154.19
2023-05-22T18:43:44.631Z,101161.12
2023-05-22T18:46:12.979Z,101159.32
2023-05-22T18:48:40.942Z,101168.02
2023-05-22T18:51:08.943Z,101171.26
2023-05-22T18:53:36.935Z,101173.88
2023-05-22T18:56:04.843Z,101168.58
2023-05-22T18:58:32.992Z,101174.66
2023-05-22T19:01:01.168Z,101168.58
2023-05-22T19:03:29.423Z,101167.70
2023-05-22T19:05:57.419Z,101172.93
2023-05-22T19:08:27.868Z,101175.74
2023-05-22T19:10:59.063Z,101188.33
2023-05-22T19:13:27.435Z,101196.41
2023-05-22T19:15:55.345Z,101194.45
2023-05-22T19:18:23.281Z,101204.41
2023-05-22T19:20:51.266Z,101205.89
2023-05-22T19:23:19.857Z,101203.11
2023-05-22T19:25:48.084Z,101212.76
2023-05-22T19:28:16.139Z,101213.45
2023-05-22T19:30:44.333Z,101207.95
2023-05-22T19:33:13.262Z,101212.52
2023-05-22T19:35:41.775Z,101209.42
2023-05-22T19:38:09.832Z,101218.80
2023-05-22T19:40:37.909Z,101225.57
2023-05-22T19:43:06.148Z,101218.51
2023-05-22T19:45:34.088Z,101224.10
2023-05-22T19:48:02.200Z,101230.05
2023-05-22T19:50:30.256Z,101232.28
2023-05-22T19:52:58.132Z,101243.49
2023-05-22T19:55:26.226Z,101250.75
2023-05-22T19:57:54.575Z,101254.55
2023-05-22T20:00:22.570Z,101263.70
2023-05-22T20:02:50.610Z,101267.82
2023-05-22T20:05:18.632Z,101276.65
2023-05-22T20:07:48.381Z,101276.20
2023-05-22T20:10:16.388Z,101274.95
2023-05-22T20:12:44.658Z,101277.96
2023-05-22T20:15:16.045Z,101282.87
2023-05-22T20:17:48.688Z,101285.28
2023-05-22T20:20:16.649Z,101286.95
2023-05-22T20:22:44.722Z,101282.02
2023-05-22T20:25:12.889Z,101283.98
2023-05-22T20:27:40.952Z,101286.20
2023-05-22T20:30:12.596Z,101288.42
2023-05-22T20:32:40.745Z,101291.40
2023-05-22T20:35:09.144Z,101294.08
2023-05-22T20:37:37.335Z,101302.32
2023-05-22T20:40:06.536Z,101293.66
2023-05-22T20:42:34.538Z,101298.49
2023-05-22T20:45:02.588Z,101290.58
2023-05-22T20:47:30.624Z,101295.95
2023-05-22T20:49:58.596Z,101292.55
2023-05-22T20:52:27.048Z,101290.74
2023-05-22T20:54:55.049Z,101288.72
2023-05-22T20:57:22.929Z,101284.53
2023-05-22T20:59:50.990Z,101281.13
2023-05-22T21:02:19.173Z,101283.35
2023-05-22T21:04:47.157Z,101287.31
2023-05-22T21:07:15.269Z,101285.52
2023-05-22T21:09:43.234Z,101280.02
2023-05-22T21:12:11.259Z,101285.12
2023-05-22T21:14:39.164Z,101271.45
2023-05-22T21:17:07.753Z,101282.83
2023-05-22T21:19:35.727Z,101280.22
2023-05-22T21:22:03.770Z,101291.89
2023-05-22T21:24:33.647Z,101292.19
2023-05-22T21:27:02.036Z,101306.24
2023-05-22T21:29:29.948Z,101301.54
2023-05-22T21:31:57.956Z,101312.63
2023-05-22T21:34:25.881Z,101326.98
2023-05-22T21:36:53.943Z,101315.92
2023-05-22T21:39:21.899Z,101333.13
2023-05-22T21:41:50.534Z,101341.89
2023-05-22T21:44:19.827Z,101340.88
2023-05-22T21:46:47.773Z,101349.12
2023-05-22T21:49:16.261Z,101347.58
2023-05-22T21:51:44.259Z,101352.38
2023-05-22T21:54:12.267Z,101348.20
2023-05-22T21:56:40.275Z,101345.32
2023-05-22T21:59:08.237Z,101345.39
2023-05-22T22:01:36.244Z,101347.52
2023-05-22T22:04:04.917Z,101352.29
2023-05-22T22:06:33.575Z,101361.57
2023-05-22T22:09:01.626Z,101370.83
2023-05-22T22:11:29.532Z,101374.55
2023-05-22T22:13:57.648Z,101373.22
2023-05-22T22:16:25.744Z,101369.55
2023-05-22T22:18:53.770Z,101370.63
2023-05-22T22:21:21.874Z,101361.97
2023-05-22T22:23:49.788Z,101366.71
2023-05-22T22:26:17.749Z,101360.66
2023-05-22T22:28:45.725Z,101362.49
2023-05-22T22:31:13.703Z,101363.30
2023-05-22T22:33:41.963Z,101361.73
2023-05-22T22:36:10.138Z,101359.13
2023-05-22T22:38:39.743Z,101366.74
2023-05-22T22:41:09.948Z,101367.82
2023-05-22T22:43:38.075Z,101368.08
2023-05-22T22:46:06.065Z,101372.82
2023-05-22T22:48:35.102Z,101368.87
2023-05-22T22:51:03.676Z,101367.03
2023-05-22T22:53:31.728Z,101368.38
2023-05-22T22:56:00.523Z,101363.63
2023-05-22T22:58:28.803Z,101367.85
2023-05-22T23:00:56.926Z,101369.45
2023-05-22T23:03:24.791Z,101368.12
2023-05-22T23:05:52.908Z,101373.38
2023-05-22T23:08:20.840Z,101383.38
2023-05-22T23:10:48.767Z,101381.03
2023-05-22T23:13:17.424Z,101379.43
2023-05-22T23:15:45.453Z,101379.43
2023-05-22T23:18:15.168Z,101387.87
2023-05-22T23:20:43.162Z,101379.98
2023-05-22T23:23:11.075Z,101386.06
2023-05-22T23:25:39.224Z,101386.55
2023-05-22T23:28:08.163Z,101378.16
2023-05-22T23:30:36.093Z,101383.68
2023-05-22T23:33:04.109Z,101390.55
2023-05-22T23:35:32.474Z,101391.85
2023-05-22T23:38:00.396Z,101391.30
2023-05-22T23:40:28.735Z,101386.59
2023-05-22T23:42:56.757Z,101393.69
2023-05-22T23:45:24.694Z,101393.69
2023-05-22T23:47:52.672Z,101403.17
2023-05-22T23:50:20.676Z,101397.61
2023-05-22T23:52:49.561Z,101384.98
2023-05-22T23:55:17.620Z,101393.91
2023-05-22T23:57:45.548Z,101392.09
